Etusivu
METAR-TAF:

METAR-TAF

Lentoasemat :

Hiroshima, Japani

Leveyspiiri: 34-26N, Pituuspiiri: 132-55E, korkeus merenpinnasta: 331 m

Tämänhetkinen sää

Tämä raportti tehtiin 57 minuuttia sitten, kello 03.00 UTC
Tuuli 6 kn lännestä/luoteesta, vaihdellen lännen ja pohjoisen/luoteen välillä
Lämpötila 15°C
Kosteus 41%
Ilmanpaine 1014 hPa
Näkyvyys 10 km tai enemmän
Muutamia pilviä 3000 ft:n korkeudessa
Hajonneita pilviä 4000 ft:n korkeudessa

METAR: RJOA 260300Z 30006KT 260V340 9999 FEW030 BKN040 15/02 Q1014

Aika: 12:57 (03:57 UTC)

Sääennuste

Tämä raportti tehtiin 4 tuntia ja 51 minuuttia sitten, kello 23.06 UTC
Ennuste voimassa 26. päivästä klo 00 UTC - 27. päivään klo 06 UTC
Tuuli 12 kn lännestä/luoteesta
Näkyvyys 10 km tai enemmän
Muutamia pilviä 2500 ft:n korkeudessa
Hajanaisia pilviä 4000 ft:n korkeudessa

TAF: RJOA 252306Z 2600/2706 29012KT 9999 FEW025 SCT040

Säähavainnot ja -ennusteet yli 4000 lentoasemalta (METAR- ja TAF-raportit).

Käytössä olevat sääasemat on merkitty karttaan keltaisilla ja punaisilla pisteillä.

Aseta hiiri pisteen päälle nähdäksesi sääaseman nimen.

Klikkaa sitten nähdäksesi säähavainnot ja -ennusteet.

Kartan vaihtaminen: klikkaa mustalla rastilla varustettuja vihreitä pisteitä, niin voit zoomata sisään; viivalla varustettua vihreää pistettä, niin voit zoomata ulos tai vihreitä nuolia, niin pääset viereisille kartoille.


METAR-TAF: